If you wish to contribute or participate in the discussions about articles you are invited to join SKYbrary as a registered user

 Actions

Bushehr International Airport

From SKYbrary Wiki

OIBB
Airport
ICAO: OIBB – IATA: BUZ
Summary
Name Bushehr International Airport
Region Middle East
Territory Iran IR.gif
Location Bandar Bushehr, Bushehr
Serving Bandar Bushehr
Elevation 20.726 m
68 ft20.726 m
Coordinates 28° 57' 28.61" N, 50° 49' 31.58" E
Runways
Designator Length Width Surface ROPS
13L/31R 4469 m14,662.074 ft
45 m147.638 ft
ASP /
13R/31L 4470 m14,665.354 ft
45 m147.638 ft
ASP /


METAR
Observation OIBB 251100Z 31016KT CAVOK 24/14 Q1015 A2997
Station Bushehr Civ / Afb
Date/Time 25 April 2019 11:00:00
Wind direction 310°
Wind speed 16 kts
Lowest cloud amount clouds and visibility OK
Temperature 24°C
Dew point 14°C
Humidity 53%
QNH 1015 hPa
Weather condition n/a

A joint civil and military airport in Bushehr, Iran.

Climatology

Hot Semi-arid climate (Köppen climate classification BSh).

Maps

Terrain

Loading map...

Airport Layout

Loading map...


Accidents & Serious Incidents at or in vicinity of OIBB

None on SKYbrary